sensor_id;sensor_type;location;lat;lon;timestamp;P1;durP1;ratioP1;P2;durP2;ratioP2
53505;SDS011;39388;50.936;6.848;2023-02-03T00:01:07;8.90;;;5.40;;
53505;SDS011;39388;50.936;6.848;2023-02-03T00:03:37;6.63;;;4.68;;
53505;SDS011;39388;50.936;6.848;2023-02-03T00:06:08;6.70;;;4.53;;
53505;SDS011;39388;50.936;6.848;2023-02-03T00:08:39;7.70;;;4.93;;
53505;SDS011;39388;50.936;6.848;2023-02-03T00:11:09;8.20;;;5.15;;
53505;SDS011;39388;50.936;6.848;2023-02-03T00:13:40;7.47;;;4.88;;
53505;SDS011;39388;50.936;6.848;2023-02-03T00:16:10;9.82;;;4.78;;
53505;SDS011;39388;50.936;6.848;2023-02-03T00:18:41;8.35;;;4.97;;
53505;SDS011;39388;50.936;6.848;2023-02-03T00:21:11;7.78;;;4.82;;
53505;SDS011;39388;50.936;6.848;2023-02-03T00:23:44;4.95;;;4.18;;
53505;SDS011;39388;50.936;6.848;2023-02-03T00:26:14;7.88;;;4.30;;
53505;SDS011;39388;50.936;6.848;2023-02-03T00:28:46;6.63;;;4.80;;
53505;SDS011;39388;50.936;6.848;2023-02-03T00:31:18;8.07;;;4.72;;
53505;SDS011;39388;50.936;6.848;2023-02-03T00:33:54;8.02;;;4.85;;
53505;SDS011;39388;50.936;6.848;2023-02-03T00:36:25;7.72;;;4.47;;
53505;SDS011;39388;50.936;6.848;2023-02-03T00:38:56;7.40;;;4.03;;
53505;SDS011;39388;50.936;6.848;2023-02-03T00:41:27;8.52;;;4.45;;
53505;SDS011;39388;50.936;6.848;2023-02-03T00:44:00;7.63;;;4.07;;
53505;SDS011;39388;50.936;6.848;2023-02-03T00:46:30;4.78;;;3.63;;
53505;SDS011;39388;50.936;6.848;2023-02-03T00:49:02;8.73;;;4.40;;
53505;SDS011;39388;50.936;6.848;2023-02-03T00:51:33;8.05;;;3.97;;
53505;SDS011;39388;50.936;6.848;2023-02-03T00:54:03;7.13;;;3.97;;
53505;SDS011;39388;50.936;6.848;2023-02-03T00:56:33;7.68;;;3.70;;
53505;SDS011;39388;50.936;6.848;2023-02-03T00:59:04;6.70;;;3.70;;
53505;SDS011;39388;50.936;6.848;2023-02-03T01:01:34;4.88;;;3.40;;
53505;SDS011;39388;50.936;6.848;2023-02-03T01:04:06;5.38;;;3.45;;
53505;SDS011;39388;50.936;6.848;2023-02-03T01:06:38;8.50;;;3.50;;
53505;SDS011;39388;50.936;6.848;2023-02-03T01:09:09;6.03;;;3.88;;
53505;SDS011;39388;50.936;6.848;2023-02-03T01:11:40;9.88;;;3.88;;
53505;SDS011;39388;50.936;6.848;2023-02-03T01:14:10;6.68;;;3.40;;
53505;SDS011;39388;50.936;6.848;2023-02-03T01:16:41;8.48;;;4.10;;
53505;SDS011;39388;50.936;6.848;2023-02-03T01:19:11;4.38;;;3.40;;
53505;SDS011;39388;50.936;6.848;2023-02-03T01:21:41;5.57;;;3.60;;
53505;SDS011;39388;50.936;6.848;2023-02-03T01:24:12;5.85;;;3.38;;
53505;SDS011;39388;50.936;6.848;2023-02-03T01:26:44;6.30;;;3.50;;
53505;SDS011;39388;50.936;6.848;2023-02-03T01:29:14;7.30;;;3.50;;
53505;SDS011;39388;50.936;6.848;2023-02-03T01:31:44;8.63;;;3.15;;
53505;SDS011;39388;50.936;6.848;2023-02-03T01:34:15;6.93;;;3.60;;
53505;SDS011;39388;50.936;6.848;2023-02-03T01:36:47;8.23;;;3.45;;
53505;SDS011;39388;50.936;6.848;2023-02-03T01:39:18;8.13;;;3.45;;
53505;SDS011;39388;50.936;6.848;2023-02-03T01:41:48;4.68;;;2.85;;
53505;SDS011;39388;50.936;6.848;2023-02-03T01:47:15;8.60;;;3.50;;
53505;SDS011;39388;50.936;6.848;2023-02-03T01:49:59;7.13;;;3.90;;
53505;SDS011;39388;50.936;6.848;2023-02-03T01:52:49;8.07;;;3.58;;
53505;SDS011;39388;50.936;6.848;2023-02-03T01:55:23;9.18;;;3.47;;
53505;SDS011;39388;50.936;6.848;2023-02-03T01:57:58;6.82;;;3.33;;
53505;SDS011;39388;50.936;6.848;2023-02-03T02:00:34;4.88;;;2.75;;
53505;SDS011;39388;50.936;6.848;2023-02-03T02:03:04;5.53;;;3.03;;
53505;SDS011;39388;50.936;6.848;2023-02-03T02:05:38;7.95;;;3.38;;
53505;SDS011;39388;50.936;6.848;2023-02-03T02:08:15;5.45;;;3.20;;
53505;SDS011;39388;50.936;6.848;2023-02-03T02:10:48;6.68;;;3.58;;
53505;SDS011;39388;50.936;6.848;2023-02-03T02:13:19;8.00;;;3.03;;
53505;SDS011;39388;50.936;6.848;2023-02-03T02:15:57;4.20;;;2.95;;
53505;SDS011;39388;50.936;6.848;2023-02-03T02:35:55;6.00;;;3.00;;
53505;SDS011;39388;50.936;6.848;2023-02-03T02:46:39;5.53;;;3.80;;
53505;SDS011;39388;50.936;6.848;2023-02-03T02:49:18;7.15;;;3.00;;
53505;SDS011;39388;50.936;6.848;2023-02-03T02:51:54;5.30;;;3.22;;
53505;SDS011;39388;50.936;6.848;2023-02-03T02:54:26;6.72;;;3.10;;
53505;SDS011;39388;50.936;6.848;2023-02-03T02:56:59;5.67;;;2.97;;
53505;SDS011;39388;50.936;6.848;2023-02-03T02:59:32;5.65;;;2.90;;
53505;SDS011;39388;50.936;6.848;2023-02-03T03:02:02;7.15;;;3.33;;
53505;SDS011;39388;50.936;6.848;2023-02-03T03:04:33;3.60;;;2.83;;
53505;SDS011;39388;50.936;6.848;2023-02-03T03:07:08;7.88;;;3.05;;
53505;SDS011;39388;50.936;6.848;2023-02-03T03:09:52;4.10;;;2.83;;
53505;SDS011;39388;50.936;6.848;2023-02-03T03:12:36;6.18;;;2.92;;
53505;SDS011;39388;50.936;6.848;2023-02-03T03:15:12;7.63;;;3.00;;
53505;SDS011;39388;50.936;6.848;2023-02-03T03:18:10;4.82;;;2.80;;
53505;SDS011;39388;50.936;6.848;2023-02-03T03:20:52;5.78;;;2.88;;
53505;SDS011;39388;50.936;6.848;2023-02-03T03:23:27;5.13;;;3.03;;
53505;SDS011;39388;50.936;6.848;2023-02-03T03:29:02;5.13;;;3.10;;
53505;SDS011;39388;50.936;6.848;2023-02-03T03:31:39;7.90;;;3.00;;
53505;SDS011;39388;50.936;6.848;2023-02-03T03:34:11;4.50;;;2.83;;
53505;SDS011;39388;50.936;6.848;2023-02-03T03:42:11;4.95;;;3.35;;
53505;SDS011;39388;50.936;6.848;2023-02-03T03:44:47;7.72;;;3.33;;
53505;SDS011;39388;50.936;6.848;2023-02-03T03:47:45;6.00;;;3.20;;
53505;SDS011;39388;50.936;6.848;2023-02-03T03:50:25;5.70;;;3.15;;
53505;SDS011;39388;50.936;6.848;2023-02-03T03:52:59;7.93;;;3.60;;
53505;SDS011;39388;50.936;6.848;2023-02-03T03:55:32;5.57;;;3.47;;
53505;SDS011;39388;50.936;6.848;2023-02-03T03:58:09;7.03;;;3.00;;
53505;SDS011;39388;50.936;6.848;2023-02-03T04:00:44;6.38;;;3.15;;
53505;SDS011;39388;50.936;6.848;2023-02-03T04:03:19;6.97;;;3.17;;
53505;SDS011;39388;50.936;6.848;2023-02-03T04:05:53;4.07;;;3.00;;
53505;SDS011;39388;50.936;6.848;2023-02-03T04:08:23;4.20;;;3.10;;
53505;SDS011;39388;50.936;6.848;2023-02-03T04:10:54;6.55;;;3.08;;
53505;SDS011;39388;50.936;6.848;2023-02-03T04:13:24;5.57;;;3.22;;
53505;SDS011;39388;50.936;6.848;2023-02-03T04:15:55;4.88;;;3.10;;
53505;SDS011;39388;50.936;6.848;2023-02-03T04:18:25;5.32;;;3.15;;
53505;SDS011;39388;50.936;6.848;2023-02-03T04:20:55;5.50;;;3.22;;
53505;SDS011;39388;50.936;6.848;2023-02-03T04:23:26;4.82;;;3.55;;
53505;SDS011;39388;50.936;6.848;2023-02-03T04:25:56;6.97;;;3.22;;
53505;SDS011;39388;50.936;6.848;2023-02-03T04:28:30;5.15;;;3.17;;
53505;SDS011;39388;50.936;6.848;2023-02-03T04:31:00;5.60;;;3.22;;
53505;SDS011;39388;50.936;6.848;2023-02-03T04:33:30;4.90;;;3.22;;
53505;SDS011;39388;50.936;6.848;2023-02-03T04:36:01;5.40;;;3.10;;
53505;SDS011;39388;50.936;6.848;2023-02-03T04:38:31;5.35;;;3.22;;
53505;SDS011;39388;50.936;6.848;2023-02-03T04:41:02;4.82;;;3.08;;
53505;SDS011;39388;50.936;6.848;2023-02-03T04:43:32;6.32;;;2.92;;
53505;SDS011;39388;50.936;6.848;2023-02-03T04:46:03;6.75;;;3.22;;
53505;SDS011;39388;50.936;6.848;2023-02-03T04:48:33;5.85;;;3.35;;
53505;SDS011;39388;50.936;6.848;2023-02-03T04:51:05;5.35;;;3.25;;
53505;SDS011;39388;50.936;6.848;2023-02-03T04:53:36;6.22;;;3.13;;
53505;SDS011;39388;50.936;6.848;2023-02-03T04:56:07;7.20;;;3.08;;
53505;SDS011;39388;50.936;6.848;2023-02-03T04:58:37;8.38;;;3.22;;
53505;SDS011;39388;50.936;6.848;2023-02-03T05:01:07;7.07;;;3.05;;
53505;SDS011;39388;50.936;6.848;2023-02-03T05:03:38;6.10;;;3.28;;
53505;SDS011;39388;50.936;6.848;2023-02-03T05:06:09;5.22;;;3.00;;
53505;SDS011;39388;50.936;6.848;2023-02-03T05:08:39;9.18;;;3.22;;
53505;SDS011;39388;50.936;6.848;2023-02-03T05:11:09;6.03;;;2.90;;
53505;SDS011;39388;50.936;6.848;2023-02-03T05:13:40;5.80;;;2.88;;
53505;SDS011;39388;50.936;6.848;2023-02-03T05:16:10;6.22;;;3.10;;
53505;SDS011;39388;50.936;6.848;2023-02-03T05:18:40;5.53;;;3.30;;
53505;SDS011;39388;50.936;6.848;2023-02-03T05:21:11;5.10;;;3.10;;
53505;SDS011;39388;50.936;6.848;2023-02-03T05:23:41;4.78;;;3.22;;
53505;SDS011;39388;50.936;6.848;2023-02-03T05:26:12;5.47;;;3.20;;
53505;SDS011;39388;50.936;6.848;2023-02-03T05:28:42;5.18;;;3.20;;
53505;SDS011;39388;50.936;6.848;2023-02-03T05:31:12;5.38;;;3.17;;
53505;SDS011;39388;50.936;6.848;2023-02-03T05:33:43;4.65;;;2.75;;
53505;SDS011;39388;50.936;6.848;2023-02-03T05:36:13;5.97;;;2.70;;
53505;SDS011;39388;50.936;6.848;2023-02-03T05:38:44;7.88;;;3.00;;
53505;SDS011;39388;50.936;6.848;2023-02-03T05:41:14;6.30;;;2.85;;
53505;SDS011;39388;50.936;6.848;2023-02-03T05:44:03;8.48;;;2.83;;
53505;SDS011;39388;50.936;6.848;2023-02-03T05:46:33;5.68;;;2.65;;
53505;SDS011;39388;50.936;6.848;2023-02-03T05:49:04;5.03;;;2.65;;
53505;SDS011;39388;50.936;6.848;2023-02-03T05:51:34;11.77;;;3.28;;
53505;SDS011;39388;50.936;6.848;2023-02-03T05:54:05;5.55;;;2.55;;
53505;SDS011;39388;50.936;6.848;2023-02-03T05:56:36;5.22;;;2.95;;
53505;SDS011;39388;50.936;6.848;2023-02-03T05:59:06;8.70;;;3.75;;
53505;SDS011;39388;50.936;6.848;2023-02-03T06:01:37;6.35;;;2.20;;
53505;SDS011;39388;50.936;6.848;2023-02-03T06:04:08;4.53;;;2.60;;
53505;SDS011;39388;50.936;6.848;2023-02-03T06:06:38;4.30;;;2.10;;
53505;SDS011;39388;50.936;6.848;2023-02-03T06:09:09;3.90;;;2.25;;
53505;SDS011;39388;50.936;6.848;2023-02-03T06:11:39;6.15;;;2.30;;
53505;SDS011;39388;50.936;6.848;2023-02-03T06:14:11;4.43;;;3.10;;
53505;SDS011;39388;50.936;6.848;2023-02-03T06:16:42;6.93;;;2.70;;
53505;SDS011;39388;50.936;6.848;2023-02-03T06:19:12;9.05;;;2.40;;
53505;SDS011;39388;50.936;6.848;2023-02-03T06:21:42;5.60;;;2.35;;
53505;SDS011;39388;50.936;6.848;2023-02-03T06:24:13;7.60;;;2.35;;
53505;SDS011;39388;50.936;6.848;2023-02-03T06:26:43;6.20;;;2.63;;
53505;SDS011;39388;50.936;6.848;2023-02-03T06:29:14;4.35;;;1.92;;
53505;SDS011;39388;50.936;6.848;2023-02-03T06:31:44;5.65;;;2.55;;
53505;SDS011;39388;50.936;6.848;2023-02-03T06:34:14;2.50;;;2.03;;
53505;SDS011;39388;50.936;6.848;2023-02-03T06:36:45;4.10;;;1.95;;
53505;SDS011;39388;50.936;6.848;2023-02-03T06:39:17;3.72;;;2.15;;
53505;SDS011;39388;50.936;6.848;2023-02-03T06:41:47;4.35;;;2.38;;
53505;SDS011;39388;50.936;6.848;2023-02-03T06:44:18;4.57;;;2.30;;
53505;SDS011;39388;50.936;6.848;2023-02-03T06:46:48;5.55;;;2.80;;
53505;SDS011;39388;50.936;6.848;2023-02-03T06:49:19;4.63;;;2.28;;
53505;SDS011;39388;50.936;6.848;2023-02-03T06:51:50;4.90;;;2.20;;
53505;SDS011;39388;50.936;6.848;2023-02-03T06:54:21;4.97;;;2.03;;
53505;SDS011;39388;50.936;6.848;2023-02-03T06:56:51;5.28;;;2.10;;
53505;SDS011;39388;50.936;6.848;2023-02-03T06:59:22;5.90;;;2.47;;
53505;SDS011;39388;50.936;6.848;2023-02-03T07:01:52;5.13;;;2.50;;
53505;SDS011;39388;50.936;6.848;2023-02-03T07:04:23;6.00;;;2.33;;
53505;SDS011;39388;50.936;6.848;2023-02-03T07:06:53;8.23;;;2.58;;
53505;SDS011;39388;50.936;6.848;2023-02-03T07:09:23;3.78;;;2.30;;
53505;SDS011;39388;50.936;6.848;2023-02-03T07:11:54;7.15;;;2.40;;
53505;SDS011;39388;50.936;6.848;2023-02-03T07:14:24;5.03;;;2.22;;
53505;SDS011;39388;50.936;6.848;2023-02-03T07:16:54;4.30;;;2.10;;
53505;SDS011;39388;50.936;6.848;2023-02-03T07:19:25;4.63;;;2.22;;
53505;SDS011;39388;50.936;6.848;2023-02-03T07:21:55;5.13;;;2.70;;
53505;SDS011;39388;50.936;6.848;2023-02-03T07:24:26;4.68;;;2.10;;
53505;SDS011;39388;50.936;6.848;2023-02-03T07:26:56;6.25;;;2.40;;
53505;SDS011;39388;50.936;6.848;2023-02-03T07:29:26;2.90;;;2.00;;
53505;SDS011;39388;50.936;6.848;2023-02-03T07:31:57;6.35;;;2.53;;
53505;SDS011;39388;50.936;6.848;2023-02-03T07:34:27;4.30;;;2.30;;
53505;SDS011;39388;50.936;6.848;2023-02-03T07:36:58;4.25;;;2.10;;
53505;SDS011;39388;50.936;6.848;2023-02-03T07:39:28;3.47;;;2.22;;
53505;SDS011;39388;50.936;6.848;2023-02-03T07:41:59;5.28;;;2.20;;
53505;SDS011;39388;50.936;6.848;2023-02-03T07:44:29;6.00;;;2.15;;
53505;SDS011;39388;50.936;6.848;2023-02-03T07:47:00;4.38;;;2.05;;
53505;SDS011;39388;50.936;6.848;2023-02-03T07:49:30;3.55;;;1.90;;
53505;SDS011;39388;50.936;6.848;2023-02-03T07:52:00;5.22;;;1.80;;
53505;SDS011;39388;50.936;6.848;2023-02-03T07:54:31;2.97;;;1.75;;
53505;SDS011;39388;50.936;6.848;2023-02-03T07:57:01;5.72;;;2.22;;
53505;SDS011;39388;50.936;6.848;2023-02-03T07:59:31;5.70;;;1.92;;
53505;SDS011;39388;50.936;6.848;2023-02-03T08:02:02;3.30;;;1.70;;
53505;SDS011;39388;50.936;6.848;2023-02-03T08:04:32;4.57;;;1.80;;
53505;SDS011;39388;50.936;6.848;2023-02-03T08:07:03;3.35;;;1.88;;
53505;SDS011;39388;50.936;6.848;2023-02-03T08:09:34;2.70;;;1.70;;
53505;SDS011;39388;50.936;6.848;2023-02-03T08:12:04;4.55;;;1.75;;
53505;SDS011;39388;50.936;6.848;2023-02-03T08:14:35;5.28;;;1.90;;
53505;SDS011;39388;50.936;6.848;2023-02-03T08:17:05;3.17;;;1.73;;
53505;SDS011;39388;50.936;6.848;2023-02-03T08:19:36;2.75;;;1.55;;
53505;SDS011;39388;50.936;6.848;2023-02-03T08:22:06;3.35;;;1.80;;
53505;SDS011;39388;50.936;6.848;2023-02-03T08:24:36;4.45;;;2.30;;
53505;SDS011;39388;50.936;6.848;2023-02-03T08:27:07;5.75;;;1.80;;
53505;SDS011;39388;50.936;6.848;2023-02-03T08:29:37;3.80;;;1.70;;
53505;SDS011;39388;50.936;6.848;2023-02-03T08:32:08;3.90;;;1.70;;
53505;SDS011;39388;50.936;6.848;2023-02-03T08:34:39;4.53;;;1.90;;
53505;SDS011;39388;50.936;6.848;2023-02-03T08:37:13;3.28;;;1.83;;
53505;SDS011;39388;50.936;6.848;2023-02-03T08:39:45;5.28;;;2.08;;
53505;SDS011;39388;50.936;6.848;2023-02-03T08:42:16;3.47;;;1.60;;
53505;SDS011;39388;50.936;6.848;2023-02-03T08:44:46;3.55;;;1.60;;
53505;SDS011;39388;50.936;6.848;2023-02-03T08:47:18;5.32;;;1.65;;
53505;SDS011;39388;50.936;6.848;2023-02-03T08:49:48;4.65;;;2.17;;
53505;SDS011;39388;50.936;6.848;2023-02-03T08:52:19;3.35;;;2.10;;
53505;SDS011;39388;50.936;6.848;2023-02-03T08:54:49;3.50;;;1.75;;
53505;SDS011;39388;50.936;6.848;2023-02-03T08:57:20;1.77;;;1.48;;
53505;SDS011;39388;50.936;6.848;2023-02-03T08:59:50;3.72;;;1.73;;
53505;SDS011;39388;50.936;6.848;2023-02-03T09:02:21;2.88;;;2.40;;
53505;SDS011;39388;50.936;6.848;2023-02-03T09:04:51;3.72;;;2.10;;
53505;SDS011;39388;50.936;6.848;2023-02-03T09:07:21;3.22;;;1.90;;
53505;SDS011;39388;50.936;6.848;2023-02-03T09:09:52;4.57;;;1.80;;
53505;SDS011;39388;50.936;6.848;2023-02-03T09:12:22;4.43;;;1.80;;
53505;SDS011;39388;50.936;6.848;2023-02-03T09:14:53;5.22;;;2.05;;
53505;SDS011;39388;50.936;6.848;2023-02-03T09:17:23;5.22;;;2.25;;
53505;SDS011;39388;50.936;6.848;2023-02-03T09:19:53;6.40;;;2.90;;
53505;SDS011;39388;50.936;6.848;2023-02-03T09:22:24;3.83;;;2.25;;
53505;SDS011;39388;50.936;6.848;2023-02-03T09:24:54;3.08;;;2.00;;
53505;SDS011;39388;50.936;6.848;2023-02-03T09:27:24;4.78;;;2.15;;
53505;SDS011;39388;50.936;6.848;2023-02-03T09:29:55;5.13;;;2.47;;
53505;SDS011;39388;50.936;6.848;2023-02-03T09:32:27;4.32;;;2.88;;
53505;SDS011;39388;50.936;6.848;2023-02-03T09:34:57;3.80;;;2.10;;
53505;SDS011;39388;50.936;6.848;2023-02-03T09:37:28;3.45;;;2.20;;
53505;SDS011;39388;50.936;6.848;2023-02-03T09:39:59;3.33;;;2.10;;
53505;SDS011;39388;50.936;6.848;2023-02-03T09:45:29;5.05;;;2.40;;
53505;SDS011;39388;50.936;6.848;2023-02-03T09:48:43;4.50;;;2.22;;
53505;SDS011;39388;50.936;6.848;2023-02-03T09:50:56;3.42;;;1.98;;
53505;SDS011;39388;50.936;6.848;2023-02-03T09:53:28;3.17;;;1.85;;
53505;SDS011;39388;50.936;6.848;2023-02-03T09:56:04;5.13;;;2.50;;
53505;SDS011;39388;50.936;6.848;2023-02-03T09:58:34;3.60;;;2.58;;
53505;SDS011;39388;50.936;6.848;2023-02-03T10:01:06;6.45;;;2.63;;
53505;SDS011;39388;50.936;6.848;2023-02-03T10:19:57;5.90;;;2.45;;
53505;SDS011;39388;50.936;6.848;2023-02-03T10:22:33;6.65;;;3.13;;
53505;SDS011;39388;50.936;6.848;2023-02-03T10:27:43;4.55;;;2.15;;
53505;SDS011;39388;50.936;6.848;2023-02-03T10:30:27;6.18;;;2.33;;
53505;SDS011;39388;50.936;6.848;2023-02-03T10:33:13;3.05;;;2.47;;
53505;SDS011;39388;50.936;6.848;2023-02-03T10:38:34;4.05;;;3.00;;
53505;SDS011;39388;50.936;6.848;2023-02-03T10:41:09;4.63;;;2.67;;
53505;SDS011;39388;50.936;6.848;2023-02-03T10:43:39;4.97;;;2.67;;
53505;SDS011;39388;50.936;6.848;2023-02-03T10:46:29;4.80;;;2.60;;
53505;SDS011;39388;50.936;6.848;2023-02-03T10:49:02;5.03;;;2.78;;
53505;SDS011;39388;50.936;6.848;2023-02-03T10:54:24;5.28;;;2.70;;
53505;SDS011;39388;50.936;6.848;2023-02-03T10:57:05;5.82;;;3.78;;
53505;SDS011;39388;50.936;6.848;2023-02-03T10:59:41;5.20;;;3.00;;
53505;SDS011;39388;50.936;6.848;2023-02-03T11:07:47;4.88;;;2.58;;
53505;SDS011;39388;50.936;6.848;2023-02-03T11:10:25;4.53;;;2.67;;
53505;SDS011;39388;50.936;6.848;2023-02-03T11:13:11;4.18;;;2.80;;
53505;SDS011;39388;50.936;6.848;2023-02-03T11:18:25;7.13;;;5.90;;
53505;SDS011;39388;50.936;6.848;2023-02-03T11:20:55;4.78;;;2.80;;
53505;SDS011;39388;50.936;6.848;2023-02-03T11:23:27;4.35;;;2.60;;
53505;SDS011;39388;50.936;6.848;2023-02-03T11:25:58;6.90;;;3.20;;
53505;SDS011;39388;50.936;6.848;2023-02-03T11:28:28;3.75;;;2.90;;
53505;SDS011;39388;50.936;6.848;2023-02-03T11:30:59;4.88;;;2.83;;
53505;SDS011;39388;50.936;6.848;2023-02-03T11:33:29;5.57;;;4.05;;
53505;SDS011;39388;50.936;6.848;2023-02-03T11:36:00;5.22;;;3.75;;
53505;SDS011;39388;50.936;6.848;2023-02-03T11:38:33;7.83;;;4.97;;
53505;SDS011;39388;50.936;6.848;2023-02-03T11:41:15;4.53;;;3.00;;
53505;SDS011;39388;50.936;6.848;2023-02-03T11:43:47;5.43;;;3.50;;
53505;SDS011;39388;50.936;6.848;2023-02-03T11:46:17;4.40;;;3.63;;
53505;SDS011;39388;50.936;6.848;2023-02-03T12:00:17;8.18;;;5.00;;
53505;SDS011;39388;50.936;6.848;2023-02-03T12:05:49;8.13;;;4.78;;
53505;SDS011;39388;50.936;6.848;2023-02-03T12:08:34;6.38;;;4.10;;
53505;SDS011;39388;50.936;6.848;2023-02-03T12:13:57;6.38;;;5.25;;
53505;SDS011;39388;50.936;6.848;2023-02-03T12:25:04;6.15;;;5.10;;
53505;SDS011;39388;50.936;6.848;2023-02-03T12:30:38;6.82;;;4.47;;
53505;SDS011;39388;50.936;6.848;2023-02-03T12:36:24;7.88;;;5.68;;
53505;SDS011;39388;50.936;6.848;2023-02-03T12:39:01;8.43;;;5.28;;
53505;SDS011;39388;50.936;6.848;2023-02-03T12:41:42;6.72;;;5.20;;
53505;SDS011;39388;50.936;6.848;2023-02-03T12:44:20;6.85;;;5.75;;
53505;SDS011;39388;50.936;6.848;2023-02-03T12:47:06;6.32;;;5.13;;
53505;SDS011;39388;50.936;6.848;2023-02-03T12:52:44;6.68;;;5.35;;
53505;SDS011;39388;50.936;6.848;2023-02-03T12:58:12;7.53;;;5.63;;
53505;SDS011;39388;50.936;6.848;2023-02-03T13:00:59;9.05;;;6.13;;
53505;SDS011;39388;50.936;6.848;2023-02-03T13:03:53;7.50;;;5.70;;
53505;SDS011;39388;50.936;6.848;2023-02-03T13:06:31;8.75;;;6.22;;
53505;SDS011;39388;50.936;6.848;2023-02-03T13:20:38;8.02;;;6.20;;
53505;SDS011;39388;50.936;6.848;2023-02-03T13:23:12;9.10;;;6.57;;
53505;SDS011;39388;50.936;6.848;2023-02-03T13:31:41;6.32;;;5.40;;
53505;SDS011;39388;50.936;6.848;2023-02-03T13:43:16;10.55;;;6.63;;
53505;SDS011;39388;50.936;6.848;2023-02-03T13:45:57;8.85;;;7.00;;
53505;SDS011;39388;50.936;6.848;2023-02-03T13:48:30;9.77;;;7.28;;
53505;SDS011;39388;50.936;6.848;2023-02-03T13:51:13;8.50;;;6.82;;
53505;SDS011;39388;50.936;6.848;2023-02-03T13:53:46;9.55;;;7.05;;
53505;SDS011;39388;50.936;6.848;2023-02-03T13:56:20;10.30;;;7.32;;
53505;SDS011;39388;50.936;6.848;2023-02-03T13:59:01;10.93;;;7.72;;
53505;SDS011;39388;50.936;6.848;2023-02-03T14:01:37;8.63;;;7.38;;
53505;SDS011;39388;50.936;6.848;2023-02-03T14:06:56;10.93;;;8.07;;
53505;SDS011;39388;50.936;6.848;2023-02-03T14:12:20;10.27;;;7.45;;
53505;SDS011;39388;50.936;6.848;2023-02-03T14:17:52;9.15;;;7.15;;
53505;SDS011;39388;50.936;6.848;2023-02-03T14:25:26;8.82;;;6.88;;
53505;SDS011;39388;50.936;6.848;2023-02-03T14:28:01;9.15;;;7.13;;
53505;SDS011;39388;50.936;6.848;2023-02-03T14:36:35;11.15;;;7.28;;
53505;SDS011;39388;50.936;6.848;2023-02-03T14:56:30;13.93;;;8.98;;
53505;SDS011;39388;50.936;6.848;2023-02-03T14:59:34;8.35;;;5.45;;
53505;SDS011;39388;50.936;6.848;2023-02-03T15:02:20;8.90;;;4.95;;
53505;SDS011;39388;50.936;6.848;2023-02-03T15:07:46;7.40;;;4.85;;
53505;SDS011;39388;50.936;6.848;2023-02-03T15:13:25;8.95;;;4.90;;
53505;SDS011;39388;50.936;6.848;2023-02-03T15:16:00;6.43;;;4.20;;
53505;SDS011;39388;50.936;6.848;2023-02-03T15:18:34;6.93;;;4.15;;
53505;SDS011;39388;50.936;6.848;2023-02-03T15:21:05;7.32;;;4.30;;
53505;SDS011;39388;50.936;6.848;2023-02-03T15:23:46;10.20;;;4.05;;
53505;SDS011;39388;50.936;6.848;2023-02-03T15:26:22;5.78;;;3.90;;
53505;SDS011;39388;50.936;6.848;2023-02-03T15:28:57;7.88;;;4.15;;
53505;SDS011;39388;50.936;6.848;2023-02-03T15:34:09;5.82;;;3.70;;
53505;SDS011;39388;50.936;6.848;2023-02-03T15:36:54;6.20;;;3.80;;
53505;SDS011;39388;50.936;6.848;2023-02-03T15:42:22;7.70;;;3.80;;
53505;SDS011;39388;50.936;6.848;2023-02-03T15:47:52;6.82;;;3.80;;
53505;SDS011;39388;50.936;6.848;2023-02-03T15:50:29;5.53;;;3.45;;
53505;SDS011;39388;50.936;6.848;2023-02-03T15:53:15;5.57;;;3.90;;
53505;SDS011;39388;50.936;6.848;2023-02-03T15:55:54;6.28;;;4.25;;
53505;SDS011;39388;50.936;6.848;2023-02-03T15:58:29;4.55;;;3.35;;
53505;SDS011;39388;50.936;6.848;2023-02-03T16:01:03;8.00;;;3.90;;
53505;SDS011;39388;50.936;6.848;2023-02-03T16:03:41;6.68;;;3.40;;
53505;SDS011;39388;50.936;6.848;2023-02-03T16:08:53;6.78;;;3.83;;
53505;SDS011;39388;50.936;6.848;2023-02-03T16:11:36;5.73;;;4.03;;
53505;SDS011;39388;50.936;6.848;2023-02-03T16:14:11;5.93;;;4.00;;
53505;SDS011;39388;50.936;6.848;2023-02-03T16:17:03;6.53;;;3.60;;
53505;SDS011;39388;50.936;6.848;2023-02-03T16:19:33;6.07;;;3.38;;
53505;SDS011;39388;50.936;6.848;2023-02-03T16:22:24;5.93;;;3.70;;
53505;SDS011;39388;50.936;6.848;2023-02-03T16:27:44;7.50;;;4.25;;
53505;SDS011;39388;50.936;6.848;2023-02-03T16:30:21;8.20;;;4.38;;
53505;SDS011;39388;50.936;6.848;2023-02-03T16:33:12;8.23;;;4.40;;
53505;SDS011;39388;50.936;6.848;2023-02-03T16:39:00;8.70;;;5.15;;
53505;SDS011;39388;50.936;6.848;2023-02-03T16:41:55;9.45;;;5.57;;
53505;SDS011;39388;50.936;6.848;2023-02-03T16:44:45;8.68;;;5.57;;
53505;SDS011;39388;50.936;6.848;2023-02-03T16:47:37;8.00;;;5.22;;
53505;SDS011;39388;50.936;6.848;2023-02-03T16:50:26;11.90;;;5.70;;
53505;SDS011;39388;50.936;6.848;2023-02-03T16:53:16;5.70;;;3.85;;
53505;SDS011;39388;50.936;6.848;2023-02-03T16:56:00;8.60;;;4.25;;
53505;SDS011;39388;50.936;6.848;2023-02-03T16:58:33;8.32;;;3.95;;
53505;SDS011;39388;50.936;6.848;2023-02-03T17:01:04;9.13;;;3.78;;
53505;SDS011;39388;50.936;6.848;2023-02-03T17:03:36;7.93;;;3.58;;
53505;SDS011;39388;50.936;6.848;2023-02-03T17:06:07;8.85;;;3.63;;
53505;SDS011;39388;50.936;6.848;2023-02-03T17:08:39;8.05;;;4.50;;
53505;SDS011;39388;50.936;6.848;2023-02-03T17:11:20;8.20;;;3.53;;
53505;SDS011;39388;50.936;6.848;2023-02-03T17:13:52;9.45;;;4.60;;
53505;SDS011;39388;50.936;6.848;2023-02-03T17:16:23;9.88;;;3.72;;
53505;SDS011;39388;50.936;6.848;2023-02-03T17:21:27;9.60;;;3.72;;
53505;SDS011;39388;50.936;6.848;2023-02-03T17:23:58;7.82;;;3.20;;
53505;SDS011;39388;50.936;6.848;2023-02-03T17:26:28;8.02;;;3.10;;
53505;SDS011;39388;50.936;6.848;2023-02-03T17:28:59;6.47;;;2.92;;
53505;SDS011;39388;50.936;6.848;2023-02-03T17:31:32;5.75;;;2.75;;
53505;SDS011;39388;50.936;6.848;2023-02-03T17:34:02;8.70;;;3.45;;
53505;SDS011;39388;50.936;6.848;2023-02-03T17:36:32;7.82;;;3.40;;
53505;SDS011;39388;50.936;6.848;2023-02-03T17:39:03;10.98;;;3.35;;
53505;SDS011;39388;50.936;6.848;2023-02-03T17:41:33;8.00;;;3.33;;
53505;SDS011;39388;50.936;6.848;2023-02-03T17:44:03;11.93;;;3.33;;
53505;SDS011;39388;50.936;6.848;2023-02-03T17:46:34;12.80;;;3.95;;
53505;SDS011;39388;50.936;6.848;2023-02-03T17:49:04;6.63;;;2.90;;
53505;SDS011;39388;50.936;6.848;2023-02-03T17:51:34;10.25;;;3.42;;
53505;SDS011;39388;50.936;6.848;2023-02-03T17:54:05;8.90;;;3.50;;
53505;SDS011;39388;50.936;6.848;2023-02-03T17:56:36;10.73;;;2.95;;
53505;SDS011;39388;50.936;6.848;2023-02-03T17:59:06;9.13;;;3.30;;
53505;SDS011;39388;50.936;6.848;2023-02-03T18:01:38;8.37;;;3.30;;
53505;SDS011;39388;50.936;6.848;2023-02-03T18:04:09;9.57;;;3.15;;
53505;SDS011;39388;50.936;6.848;2023-02-03T18:06:39;7.22;;;2.85;;
53505;SDS011;39388;50.936;6.848;2023-02-03T18:09:10;9.73;;;2.97;;
53505;SDS011;39388;50.936;6.848;2023-02-03T18:11:43;13.05;;;3.78;;
53505;SDS011;39388;50.936;6.848;2023-02-03T18:14:14;8.90;;;3.33;;
53505;SDS011;39388;50.936;6.848;2023-02-03T18:16:46;8.52;;;2.75;;
53505;SDS011;39388;50.936;6.848;2023-02-03T18:19:16;15.32;;;3.17;;
53505;SDS011;39388;50.936;6.848;2023-02-03T18:21:46;10.15;;;3.90;;
53505;SDS011;39388;50.936;6.848;2023-02-03T18:24:17;12.45;;;3.25;;
53505;SDS011;39388;50.936;6.848;2023-02-03T18:26:51;12.65;;;3.72;;
53505;SDS011;39388;50.936;6.848;2023-02-03T18:29:21;9.82;;;3.17;;
53505;SDS011;39388;50.936;6.848;2023-02-03T18:31:53;8.43;;;3.20;;
53505;SDS011;39388;50.936;6.848;2023-02-03T18:34:23;9.63;;;3.53;;
53505;SDS011;39388;50.936;6.848;2023-02-03T18:36:54;13.48;;;3.90;;
53505;SDS011;39388;50.936;6.848;2023-02-03T18:39:24;8.05;;;3.33;;
53505;SDS011;39388;50.936;6.848;2023-02-03T18:41:55;7.90;;;3.25;;
53505;SDS011;39388;50.936;6.848;2023-02-03T18:44:25;10.88;;;3.58;;